sensor_id;sensor_type;location;lat;lon;timestamp;P1;durP1;ratioP1;P2;durP2;ratioP2
30533;SDS011;73248;52.398;9.814;2024-02-23T00:01:36;2.00;;;0.50;;
30533;SDS011;73248;52.398;9.814;2024-02-23T00:04:01;2.58;;;0.60;;
30533;SDS011;73248;52.398;9.814;2024-02-23T00:06:27;6.40;;;0.75;;
30533;SDS011;73248;52.398;9.814;2024-02-23T00:08:53;3.22;;;0.80;;
30533;SDS011;73248;52.398;9.814;2024-02-23T00:11:23;3.80;;;0.45;;
30533;SDS011;73248;52.398;9.814;2024-02-23T00:13:48;1.77;;;0.40;;
30533;SDS011;73248;52.398;9.814;2024-02-23T00:16:14;4.93;;;0.68;;
30533;SDS011;73248;52.398;9.814;2024-02-23T00:18:40;5.35;;;0.52;;
30533;SDS011;73248;52.398;9.814;2024-02-23T00:21:06;7.18;;;0.70;;
30533;SDS011;73248;52.398;9.814;2024-02-23T00:23:31;3.50;;;1.00;;
30533;SDS011;73248;52.398;9.814;2024-02-23T00:25:57;2.40;;;0.65;;
30533;SDS011;73248;52.398;9.814;2024-02-23T00:28:22;2.97;;;0.77;;
30533;SDS011;73248;52.398;9.814;2024-02-23T00:30:48;7.00;;;0.75;;
30533;SDS011;73248;52.398;9.814;2024-02-23T00:33:14;2.70;;;0.70;;
30533;SDS011;73248;52.398;9.814;2024-02-23T00:35:39;4.35;;;0.80;;
30533;SDS011;73248;52.398;9.814;2024-02-23T00:38:05;1.92;;;0.40;;
30533;SDS011;73248;52.398;9.814;2024-02-23T00:40:32;3.45;;;0.55;;
30533;SDS011;73248;52.398;9.814;2024-02-23T00:42:58;6.85;;;1.02;;
30533;SDS011;73248;52.398;9.814;2024-02-23T00:45:25;3.78;;;0.75;;
30533;SDS011;73248;52.398;9.814;2024-02-23T00:47:50;4.32;;;0.82;;
30533;SDS011;73248;52.398;9.814;2024-02-23T00:50:16;6.53;;;0.70;;
30533;SDS011;73248;52.398;9.814;2024-02-23T00:52:42;4.13;;;0.80;;
30533;SDS011;73248;52.398;9.814;2024-02-23T00:55:08;2.97;;;0.60;;
30533;SDS011;73248;52.398;9.814;2024-02-23T00:57:34;1.90;;;0.32;;
30533;SDS011;73248;52.398;9.814;2024-02-23T01:00:00;4.82;;;0.70;;
30533;SDS011;73248;52.398;9.814;2024-02-23T01:02:28;8.20;;;0.93;;
30533;SDS011;73248;52.398;9.814;2024-02-23T01:04:54;4.75;;;0.55;;
30533;SDS011;73248;52.398;9.814;2024-02-23T01:07:22;3.55;;;0.40;;
30533;SDS011;73248;52.398;9.814;2024-02-23T01:09:47;2.42;;;0.40;;
30533;SDS011;73248;52.398;9.814;2024-02-23T01:12:13;2.75;;;0.50;;
30533;SDS011;73248;52.398;9.814;2024-02-23T01:14:39;3.92;;;0.38;;
30533;SDS011;73248;52.398;9.814;2024-02-23T01:17:04;1.88;;;0.32;;
30533;SDS011;73248;52.398;9.814;2024-02-23T01:19:30;2.15;;;0.40;;
30533;SDS011;73248;52.398;9.814;2024-02-23T01:21:55;2.67;;;0.25;;
30533;SDS011;73248;52.398;9.814;2024-02-23T01:24:25;3.63;;;0.40;;
30533;SDS011;73248;52.398;9.814;2024-02-23T01:29:19;2.75;;;0.32;;
30533;SDS011;73248;52.398;9.814;2024-02-23T01:31:44;1.13;;;0.20;;
30533;SDS011;73248;52.398;9.814;2024-02-23T01:34:10;0.45;;;0.25;;
30533;SDS011;73248;52.398;9.814;2024-02-23T01:36:36;0.43;;;0.20;;
30533;SDS011;73248;52.398;9.814;2024-02-23T01:39:02;0.30;;;0.30;;
30533;SDS011;73248;52.398;9.814;2024-02-23T01:41:28;0.20;;;0.13;;
30533;SDS011;73248;52.398;9.814;2024-02-23T01:43:54;0.80;;;0.30;;
30533;SDS011;73248;52.398;9.814;2024-02-23T01:46:20;0.40;;;0.10;;
30533;SDS011;73248;52.398;9.814;2024-02-23T01:48:46;0.80;;;0.20;;
30533;SDS011;73248;52.398;9.814;2024-02-23T01:51:11;0.32;;;0.10;;
30533;SDS011;73248;52.398;9.814;2024-02-23T01:53:38;1.05;;;0.30;;
30533;SDS011;73248;52.398;9.814;2024-02-23T01:56:04;0.43;;;0.20;;
30533;SDS011;73248;52.398;9.814;2024-02-23T01:58:30;0.10;;;0.10;;
30533;SDS011;73248;52.398;9.814;2024-02-23T02:00:58;1.67;;;0.10;;
30533;SDS011;73248;52.398;9.814;2024-02-23T02:03:23;0.05;;;0.05;;
30533;SDS011;73248;52.398;9.814;2024-02-23T02:05:49;0.13;;;0.00;;
30533;SDS011;73248;52.398;9.814;2024-02-23T02:08:16;2.33;;;0.20;;
30533;SDS011;73248;52.398;9.814;2024-02-23T02:10:42;0.00;;;0.00;;
30533;SDS011;73248;52.398;9.814;2024-02-23T02:13:08;0.10;;;0.00;;
30533;SDS011;73248;52.398;9.814;2024-02-23T02:15:33;0.15;;;0.03;;
30533;SDS011;73248;52.398;9.814;2024-02-23T02:17:59;0.45;;;0.00;;
30533;SDS011;73248;52.398;9.814;2024-02-23T02:20:25;0.00;;;0.00;;
30533;SDS011;73248;52.398;9.814;2024-02-23T02:22:52;0.00;;;0.00;;
30533;SDS011;73248;52.398;9.814;2024-02-23T02:25:18;0.00;;;0.00;;
30533;SDS011;73248;52.398;9.814;2024-02-23T02:27:43;0.00;;;0.00;;
30533;SDS011;73248;52.398;9.814;2024-02-23T02:30:11;1.92;;;0.10;;
30533;SDS011;73248;52.398;9.814;2024-02-23T02:32:37;0.10;;;0.00;;
30533;SDS011;73248;52.398;9.814;2024-02-23T02:35:03;0.00;;;0.00;;
30533;SDS011;73248;52.398;9.814;2024-02-23T02:37:29;0.00;;;0.00;;
30533;SDS011;73248;52.398;9.814;2024-02-23T02:39:54;0.00;;;0.00;;
30533;SDS011;73248;52.398;9.814;2024-02-23T02:42:20;0.40;;;0.00;;
30533;SDS011;73248;52.398;9.814;2024-02-23T02:44:45;0.22;;;0.03;;
30533;SDS011;73248;52.398;9.814;2024-02-23T02:47:11;0.00;;;0.00;;
30533;SDS011;73248;52.398;9.814;2024-02-23T02:49:37;0.05;;;0.05;;
30533;SDS011;73248;52.398;9.814;2024-02-23T02:52:04;0.10;;;0.10;;
30533;SDS011;73248;52.398;9.814;2024-02-23T02:54:29;0.10;;;0.10;;
30533;SDS011;73248;52.398;9.814;2024-02-23T02:56:55;0.20;;;0.10;;
30533;SDS011;73248;52.398;9.814;2024-02-23T02:59:21;0.40;;;0.15;;
30533;SDS011;73248;52.398;9.814;2024-02-23T03:01:48;0.10;;;0.00;;
30533;SDS011;73248;52.398;9.814;2024-02-23T03:04:13;0.52;;;0.10;;
30533;SDS011;73248;52.398;9.814;2024-02-23T03:06:39;0.00;;;0.00;;
30533;SDS011;73248;52.398;9.814;2024-02-23T03:09:05;0.10;;;0.10;;
30533;SDS011;73248;52.398;9.814;2024-02-23T03:11:32;1.75;;;0.40;;
30533;SDS011;73248;52.398;9.814;2024-02-23T03:13:57;1.85;;;0.40;;
30533;SDS011;73248;52.398;9.814;2024-02-23T03:16:23;0.40;;;0.20;;
30533;SDS011;73248;52.398;9.814;2024-02-23T03:18:51;0.70;;;0.35;;
30533;SDS011;73248;52.398;9.814;2024-02-23T03:21:20;1.50;;;0.25;;
30533;SDS011;73248;52.398;9.814;2024-02-23T03:23:45;3.95;;;0.45;;
30533;SDS011;73248;52.398;9.814;2024-02-23T03:26:11;2.30;;;0.30;;
30533;SDS011;73248;52.398;9.814;2024-02-23T03:28:36;1.75;;;0.22;;
30533;SDS011;73248;52.398;9.814;2024-02-23T03:31:02;2.97;;;0.38;;
30533;SDS011;73248;52.398;9.814;2024-02-23T03:33:28;3.47;;;0.50;;
30533;SDS011;73248;52.398;9.814;2024-02-23T03:35:53;0.65;;;0.43;;
30533;SDS011;73248;52.398;9.814;2024-02-23T03:38:20;3.05;;;0.50;;
30533;SDS011;73248;52.398;9.814;2024-02-23T03:40:46;0.88;;;0.38;;
30533;SDS011;73248;52.398;9.814;2024-02-23T03:43:11;0.73;;;0.57;;
30533;SDS011;73248;52.398;9.814;2024-02-23T03:45:37;0.40;;;0.40;;
30533;SDS011;73248;52.398;9.814;2024-02-23T03:48:03;1.85;;;0.30;;
30533;SDS011;73248;52.398;9.814;2024-02-23T03:50:29;4.88;;;0.60;;
30533;SDS011;73248;52.398;9.814;2024-02-23T03:52:55;1.27;;;0.40;;
30533;SDS011;73248;52.398;9.814;2024-02-23T03:55:21;1.63;;;0.57;;
30533;SDS011;73248;52.398;9.814;2024-02-23T03:57:47;1.33;;;0.60;;
30533;SDS011;73248;52.398;9.814;2024-02-23T04:00:13;3.28;;;0.68;;
30533;SDS011;73248;52.398;9.814;2024-02-23T04:02:39;1.40;;;0.45;;
30533;SDS011;73248;52.398;9.814;2024-02-23T04:05:05;1.50;;;0.70;;
30533;SDS011;73248;52.398;9.814;2024-02-23T04:07:31;2.53;;;0.60;;
30533;SDS011;73248;52.398;9.814;2024-02-23T04:09:56;2.00;;;0.63;;
30533;SDS011;73248;52.398;9.814;2024-02-23T04:12:22;2.75;;;0.60;;
30533;SDS011;73248;52.398;9.814;2024-02-23T04:14:48;1.92;;;0.50;;
30533;SDS011;73248;52.398;9.814;2024-02-23T04:17:13;0.88;;;0.50;;
30533;SDS011;73248;52.398;9.814;2024-02-23T04:19:42;8.07;;;0.90;;
30533;SDS011;73248;52.398;9.814;2024-02-23T04:22:08;2.40;;;0.82;;
30533;SDS011;73248;52.398;9.814;2024-02-23T04:24:38;5.90;;;0.70;;
30533;SDS011;73248;52.398;9.814;2024-02-23T04:27:04;3.70;;;0.70;;
30533;SDS011;73248;52.398;9.814;2024-02-23T04:29:30;7.47;;;0.85;;
30533;SDS011;73248;52.398;9.814;2024-02-23T04:31:57;4.43;;;1.00;;
30533;SDS011;73248;52.398;9.814;2024-02-23T04:34:26;7.68;;;1.08;;
30533;SDS011;73248;52.398;9.814;2024-02-23T04:36:52;8.38;;;0.90;;
30533;SDS011;73248;52.398;9.814;2024-02-23T04:39:17;2.10;;;0.70;;
30533;SDS011;73248;52.398;9.814;2024-02-23T04:41:43;5.13;;;0.90;;
30533;SDS011;73248;52.398;9.814;2024-02-23T04:44:08;3.15;;;0.52;;
30533;SDS011;73248;52.398;9.814;2024-02-23T04:46:34;2.33;;;0.90;;
30533;SDS011;73248;52.398;9.814;2024-02-23T04:49:00;4.60;;;0.57;;
30533;SDS011;73248;52.398;9.814;2024-02-23T04:51:26;2.78;;;0.60;;
30533;SDS011;73248;52.398;9.814;2024-02-23T04:53:52;5.60;;;1.08;;
30533;SDS011;73248;52.398;9.814;2024-02-23T04:56:17;8.52;;;0.77;;
30533;SDS011;73248;52.398;9.814;2024-02-23T04:58:43;3.97;;;0.70;;
30533;SDS011;73248;52.398;9.814;2024-02-23T05:01:09;5.05;;;0.80;;
30533;SDS011;73248;52.398;9.814;2024-02-23T05:03:35;4.00;;;0.77;;
30533;SDS011;73248;52.398;9.814;2024-02-23T05:06:02;10.35;;;1.17;;
30533;SDS011;73248;52.398;9.814;2024-02-23T05:08:28;3.28;;;0.57;;
30533;SDS011;73248;52.398;9.814;2024-02-23T05:10:55;3.80;;;0.70;;
30533;SDS011;73248;52.398;9.814;2024-02-23T05:13:21;3.60;;;0.73;;
30533;SDS011;73248;52.398;9.814;2024-02-23T05:15:47;3.85;;;0.50;;
30533;SDS011;73248;52.398;9.814;2024-02-23T05:18:12;1.65;;;0.60;;
30533;SDS011;73248;52.398;9.814;2024-02-23T05:20:38;2.35;;;0.68;;
30533;SDS011;73248;52.398;9.814;2024-02-23T05:23:04;3.30;;;0.50;;
30533;SDS011;73248;52.398;9.814;2024-02-23T05:25:29;0.63;;;0.50;;
30533;SDS011;73248;52.398;9.814;2024-02-23T05:27:55;3.70;;;0.80;;
30533;SDS011;73248;52.398;9.814;2024-02-23T05:30:21;1.98;;;0.50;;
30533;SDS011;73248;52.398;9.814;2024-02-23T05:32:47;9.32;;;0.70;;
30533;SDS011;73248;52.398;9.814;2024-02-23T05:35:13;3.17;;;0.55;;
30533;SDS011;73248;52.398;9.814;2024-02-23T05:37:38;3.63;;;0.40;;
30533;SDS011;73248;52.398;9.814;2024-02-23T05:40:05;1.77;;;0.60;;
30533;SDS011;73248;52.398;9.814;2024-02-23T05:42:32;6.05;;;0.70;;
30533;SDS011;73248;52.398;9.814;2024-02-23T05:44:58;4.93;;;0.45;;
30533;SDS011;73248;52.398;9.814;2024-02-23T05:47:23;2.47;;;0.70;;
30533;SDS011;73248;52.398;9.814;2024-02-23T05:49:50;4.07;;;0.85;;
30533;SDS011;73248;52.398;9.814;2024-02-23T05:52:15;0.75;;;0.50;;
30533;SDS011;73248;52.398;9.814;2024-02-23T05:54:41;1.35;;;0.52;;
30533;SDS011;73248;52.398;9.814;2024-02-23T05:57:07;3.72;;;0.50;;
30533;SDS011;73248;52.398;9.814;2024-02-23T05:59:33;3.88;;;0.50;;
30533;SDS011;73248;52.398;9.814;2024-02-23T06:01:59;3.58;;;0.70;;
30533;SDS011;73248;52.398;9.814;2024-02-23T06:04:24;5.88;;;0.90;;
30533;SDS011;73248;52.398;9.814;2024-02-23T06:06:50;5.40;;;0.57;;
30533;SDS011;73248;52.398;9.814;2024-02-23T06:09:16;2.97;;;0.50;;
30533;SDS011;73248;52.398;9.814;2024-02-23T06:11:41;4.03;;;0.50;;
30533;SDS011;73248;52.398;9.814;2024-02-23T06:14:07;4.53;;;0.60;;
30533;SDS011;73248;52.398;9.814;2024-02-23T06:16:33;4.57;;;0.88;;
30533;SDS011;73248;52.398;9.814;2024-02-23T06:18:59;4.60;;;0.95;;
30533;SDS011;73248;52.398;9.814;2024-02-23T06:21:25;7.72;;;0.70;;
30533;SDS011;73248;52.398;9.814;2024-02-23T06:23:51;3.42;;;0.73;;
30533;SDS011;73248;52.398;9.814;2024-02-23T06:26:17;5.43;;;0.50;;
30533;SDS011;73248;52.398;9.814;2024-02-23T06:28:42;8.02;;;0.93;;
30533;SDS011;73248;52.398;9.814;2024-02-23T06:31:08;2.45;;;0.60;;
30533;SDS011;73248;52.398;9.814;2024-02-23T06:33:34;6.47;;;0.90;;
30533;SDS011;73248;52.398;9.814;2024-02-23T06:36:00;3.40;;;0.82;;
30533;SDS011;73248;52.398;9.814;2024-02-23T06:38:26;6.15;;;1.13;;
30533;SDS011;73248;52.398;9.814;2024-02-23T06:40:52;2.83;;;0.88;;
30533;SDS011;73248;52.398;9.814;2024-02-23T06:43:18;3.78;;;0.80;;
30533;SDS011;73248;52.398;9.814;2024-02-23T06:45:44;4.25;;;0.93;;
30533;SDS011;73248;52.398;9.814;2024-02-23T06:48:10;4.28;;;0.93;;
30533;SDS011;73248;52.398;9.814;2024-02-23T06:50:35;3.13;;;0.77;;
30533;SDS011;73248;52.398;9.814;2024-02-23T06:53:01;4.03;;;0.70;;
30533;SDS011;73248;52.398;9.814;2024-02-23T06:55:27;5.13;;;1.15;;
30533;SDS011;73248;52.398;9.814;2024-02-23T06:57:53;3.13;;;0.60;;
30533;SDS011;73248;52.398;9.814;2024-02-23T07:00:20;3.78;;;1.08;;
30533;SDS011;73248;52.398;9.814;2024-02-23T07:02:46;2.58;;;0.57;;
30533;SDS011;73248;52.398;9.814;2024-02-23T07:05:12;5.20;;;0.85;;
30533;SDS011;73248;52.398;9.814;2024-02-23T07:07:39;3.28;;;0.70;;
30533;SDS011;73248;52.398;9.814;2024-02-23T07:10:05;1.35;;;0.65;;
30533;SDS011;73248;52.398;9.814;2024-02-23T07:12:31;4.13;;;1.02;;
30533;SDS011;73248;52.398;9.814;2024-02-23T07:14:57;3.05;;;0.68;;
30533;SDS011;73248;52.398;9.814;2024-02-23T07:17:23;1.67;;;0.55;;
30533;SDS011;73248;52.398;9.814;2024-02-23T07:19:49;2.83;;;0.77;;
30533;SDS011;73248;52.398;9.814;2024-02-23T07:22:15;3.40;;;0.65;;
30533;SDS011;73248;52.398;9.814;2024-02-23T07:24:43;4.55;;;0.73;;
30533;SDS011;73248;52.398;9.814;2024-02-23T07:27:09;2.50;;;0.55;;
30533;SDS011;73248;52.398;9.814;2024-02-23T07:29:35;5.68;;;0.75;;
30533;SDS011;73248;52.398;9.814;2024-02-23T07:32:00;3.95;;;0.73;;
30533;SDS011;73248;52.398;9.814;2024-02-23T07:34:26;4.90;;;1.02;;
30533;SDS011;73248;52.398;9.814;2024-02-23T07:36:52;2.60;;;0.60;;
30533;SDS011;73248;52.398;9.814;2024-02-23T07:39:19;0.35;;;0.30;;
30533;SDS011;73248;52.398;9.814;2024-02-23T07:41:45;6.00;;;0.98;;
30533;SDS011;73248;52.398;9.814;2024-02-23T07:44:11;5.75;;;0.85;;
30533;SDS011;73248;52.398;9.814;2024-02-23T07:46:37;7.30;;;1.05;;
30533;SDS011;73248;52.398;9.814;2024-02-23T07:49:04;2.33;;;0.90;;
30533;SDS011;73248;52.398;9.814;2024-02-23T07:51:31;5.65;;;0.98;;
30533;SDS011;73248;52.398;9.814;2024-02-23T07:53:56;3.10;;;0.55;;
30533;SDS011;73248;52.398;9.814;2024-02-23T07:56:22;4.40;;;0.68;;
30533;SDS011;73248;52.398;9.814;2024-02-23T07:58:48;5.13;;;0.50;;
30533;SDS011;73248;52.398;9.814;2024-02-23T08:01:14;2.55;;;0.63;;
30533;SDS011;73248;52.398;9.814;2024-02-23T08:03:39;5.80;;;0.90;;
30533;SDS011;73248;52.398;9.814;2024-02-23T08:06:05;4.28;;;0.63;;
30533;SDS011;73248;52.398;9.814;2024-02-23T08:08:31;7.95;;;0.88;;
30533;SDS011;73248;52.398;9.814;2024-02-23T08:11:03;6.63;;;0.98;;
30533;SDS011;73248;52.398;9.814;2024-02-23T08:13:29;3.47;;;0.80;;
30533;SDS011;73248;52.398;9.814;2024-02-23T08:15:55;4.70;;;1.05;;
30533;SDS011;73248;52.398;9.814;2024-02-23T08:18:24;4.15;;;0.60;;
30533;SDS011;73248;52.398;9.814;2024-02-23T08:20:49;6.55;;;0.77;;
30533;SDS011;73248;52.398;9.814;2024-02-23T08:23:17;9.15;;;0.90;;
30533;SDS011;73248;52.398;9.814;2024-02-23T08:28:09;5.20;;;0.88;;
30533;SDS011;73248;52.398;9.814;2024-02-23T08:30:35;6.82;;;0.70;;
30533;SDS011;73248;52.398;9.814;2024-02-23T08:33:00;8.30;;;0.98;;
30533;SDS011;73248;52.398;9.814;2024-02-23T08:35:26;6.63;;;1.00;;
30533;SDS011;73248;52.398;9.814;2024-02-23T08:37:51;3.58;;;0.70;;
30533;SDS011;73248;52.398;9.814;2024-02-23T08:40:17;7.35;;;0.90;;
30533;SDS011;73248;52.398;9.814;2024-02-23T08:42:43;5.00;;;0.82;;
30533;SDS011;73248;52.398;9.814;2024-02-23T08:45:08;2.65;;;0.73;;
30533;SDS011;73248;52.398;9.814;2024-02-23T08:47:38;4.40;;;0.75;;
30533;SDS011;73248;52.398;9.814;2024-02-23T08:50:04;3.20;;;0.60;;
30533;SDS011;73248;52.398;9.814;2024-02-23T08:52:30;3.15;;;0.50;;
30533;SDS011;73248;52.398;9.814;2024-02-23T08:54:56;2.67;;;0.60;;
30533;SDS011;73248;52.398;9.814;2024-02-23T08:57:22;4.30;;;0.60;;
30533;SDS011;73248;52.398;9.814;2024-02-23T08:59:51;2.47;;;0.47;;
30533;SDS011;73248;52.398;9.814;2024-02-23T09:02:16;7.60;;;0.82;;
30533;SDS011;73248;52.398;9.814;2024-02-23T09:04:43;4.50;;;0.65;;
30533;SDS011;73248;52.398;9.814;2024-02-23T09:07:10;1.77;;;0.43;;
30533;SDS011;73248;52.398;9.814;2024-02-23T09:09:36;1.27;;;0.28;;
30533;SDS011;73248;52.398;9.814;2024-02-23T09:12:02;5.60;;;0.70;;
30533;SDS011;73248;52.398;9.814;2024-02-23T09:14:28;4.13;;;0.85;;
30533;SDS011;73248;52.398;9.814;2024-02-23T09:16:54;5.93;;;0.90;;
30533;SDS011;73248;52.398;9.814;2024-02-23T09:19:20;6.40;;;0.85;;
30533;SDS011;73248;52.398;9.814;2024-02-23T09:21:45;6.55;;;0.60;;
30533;SDS011;73248;52.398;9.814;2024-02-23T09:24:12;2.92;;;0.70;;
30533;SDS011;73248;52.398;9.814;2024-02-23T09:26:38;2.28;;;0.30;;
30533;SDS011;73248;52.398;9.814;2024-02-23T09:29:04;2.50;;;0.43;;
30533;SDS011;73248;52.398;9.814;2024-02-23T09:31:30;2.50;;;0.40;;
30533;SDS011;73248;52.398;9.814;2024-02-23T09:33:56;3.22;;;0.52;;
30533;SDS011;73248;52.398;9.814;2024-02-23T09:36:22;8.70;;;0.60;;
30533;SDS011;73248;52.398;9.814;2024-02-23T09:38:48;7.10;;;0.75;;
30533;SDS011;73248;52.398;9.814;2024-02-23T09:41:24;4.22;;;0.50;;
30533;SDS011;73248;52.398;9.814;2024-02-23T09:43:50;4.45;;;0.88;;
30533;SDS011;73248;52.398;9.814;2024-02-23T09:46:16;3.70;;;0.60;;
30533;SDS011;73248;52.398;9.814;2024-02-23T09:48:43;3.58;;;0.45;;
30533;SDS011;73248;52.398;9.814;2024-02-23T09:51:09;5.38;;;0.50;;
30533;SDS011;73248;52.398;9.814;2024-02-23T09:53:38;3.45;;;0.60;;
30533;SDS011;73248;52.398;9.814;2024-02-23T09:56:05;2.15;;;0.60;;
30533;SDS011;73248;52.398;9.814;2024-02-23T09:58:31;3.47;;;0.52;;
30533;SDS011;73248;52.398;9.814;2024-02-23T10:00:58;1.25;;;0.57;;
30533;SDS011;73248;52.398;9.814;2024-02-23T10:03:27;1.40;;;0.52;;
30533;SDS011;73248;52.398;9.814;2024-02-23T10:05:57;2.55;;;0.50;;
30533;SDS011;73248;52.398;9.814;2024-02-23T10:08:23;2.03;;;0.40;;
30533;SDS011;73248;52.398;9.814;2024-02-23T10:10:48;1.30;;;0.40;;
30533;SDS011;73248;52.398;9.814;2024-02-23T10:13:22;1.33;;;0.50;;
30533;SDS011;73248;52.398;9.814;2024-02-23T10:15:49;3.63;;;0.45;;
30533;SDS011;73248;52.398;9.814;2024-02-23T10:18:16;4.45;;;0.63;;
30533;SDS011;73248;52.398;9.814;2024-02-23T10:20:41;2.63;;;0.40;;
30533;SDS011;73248;52.398;9.814;2024-02-23T10:23:08;2.55;;;0.65;;
30533;SDS011;73248;52.398;9.814;2024-02-23T10:25:34;4.78;;;0.45;;
30533;SDS011;73248;52.398;9.814;2024-02-23T10:28:03;3.33;;;0.50;;
30533;SDS011;73248;52.398;9.814;2024-02-23T10:30:30;4.43;;;0.57;;
30533;SDS011;73248;52.398;9.814;2024-02-23T10:32:57;1.92;;;0.50;;
30533;SDS011;73248;52.398;9.814;2024-02-23T10:35:23;3.55;;;0.88;;
30533;SDS011;73248;52.398;9.814;2024-02-23T10:37:50;1.52;;;0.40;;
30533;SDS011;73248;52.398;9.814;2024-02-23T10:40:17;1.10;;;0.38;;
30533;SDS011;73248;52.398;9.814;2024-02-23T10:42:44;3.80;;;0.60;;
30533;SDS011;73248;52.398;9.814;2024-02-23T10:45:14;3.47;;;0.68;;
30533;SDS011;73248;52.398;9.814;2024-02-23T10:50:06;2.10;;;0.40;;
30533;SDS011;73248;52.398;9.814;2024-02-23T10:52:32;4.10;;;0.80;;
30533;SDS011;73248;52.398;9.814;2024-02-23T10:55:00;3.47;;;0.68;;
30533;SDS011;73248;52.398;9.814;2024-02-23T10:57:29;4.45;;;0.80;;
30533;SDS011;73248;52.398;9.814;2024-02-23T10:59:56;0.88;;;0.47;;
30533;SDS011;73248;52.398;9.814;2024-02-23T11:02:22;4.60;;;0.88;;
30533;SDS011;73248;52.398;9.814;2024-02-23T11:04:50;3.75;;;0.60;;
30533;SDS011;73248;52.398;9.814;2024-02-23T11:07:21;2.00;;;0.50;;
30533;SDS011;73248;52.398;9.814;2024-02-23T11:09:53;2.58;;;0.60;;
30533;SDS011;73248;52.398;9.814;2024-02-23T11:12:25;3.47;;;0.60;;
30533;SDS011;73248;52.398;9.814;2024-02-23T11:14:57;3.58;;;0.65;;
30533;SDS011;73248;52.398;9.814;2024-02-23T11:17:26;1.92;;;0.75;;
30533;SDS011;73248;52.398;9.814;2024-02-23T11:19:55;3.08;;;0.60;;
30533;SDS011;73248;52.398;9.814;2024-02-23T11:22:25;4.22;;;0.70;;
30533;SDS011;73248;52.398;9.814;2024-02-23T11:25:04;1.85;;;0.55;;
30533;SDS011;73248;52.398;9.814;2024-02-23T11:27:33;2.80;;;0.60;;
30533;SDS011;73248;52.398;9.814;2024-02-23T11:30:04;2.40;;;0.63;;
30533;SDS011;73248;52.398;9.814;2024-02-23T11:35:04;2.28;;;0.75;;
30533;SDS011;73248;52.398;9.814;2024-02-23T11:37:32;3.35;;;0.50;;
30533;SDS011;73248;52.398;9.814;2024-02-23T11:39:58;1.10;;;0.35;;
30533;SDS011;73248;52.398;9.814;2024-02-23T11:42:29;3.30;;;0.50;;
30533;SDS011;73248;52.398;9.814;2024-02-23T11:44:56;2.97;;;0.47;;
30533;SDS011;73248;52.398;9.814;2024-02-23T11:47:23;3.55;;;1.13;;
30533;SDS011;73248;52.398;9.814;2024-02-23T11:49:49;4.05;;;0.57;;
30533;SDS011;73248;52.398;9.814;2024-02-23T11:52:15;2.45;;;0.60;;
30533;SDS011;73248;52.398;9.814;2024-02-23T11:54:42;2.38;;;0.95;;
30533;SDS011;73248;52.398;9.814;2024-02-23T11:57:07;1.05;;;0.40;;
30533;SDS011;73248;52.398;9.814;2024-02-23T11:59:33;3.30;;;0.50;;
30533;SDS011;73248;52.398;9.814;2024-02-23T12:01:58;2.30;;;0.70;;
30533;SDS011;73248;52.398;9.814;2024-02-23T12:04:26;1.92;;;0.55;;
30533;SDS011;73248;52.398;9.814;2024-02-23T12:06:53;3.42;;;0.52;;
30533;SDS011;73248;52.398;9.814;2024-02-23T12:09:19;2.72;;;0.75;;
30533;SDS011;73248;52.398;9.814;2024-02-23T12:11:45;3.47;;;0.80;;
30533;SDS011;73248;52.398;9.814;2024-02-23T12:14:11;6.13;;;0.88;;
30533;SDS011;73248;52.398;9.814;2024-02-23T12:16:36;2.88;;;0.93;;
30533;SDS011;73248;52.398;9.814;2024-02-23T12:19:04;1.63;;;0.55;;
30533;SDS011;73248;52.398;9.814;2024-02-23T12:21:30;1.52;;;0.43;;
30533;SDS011;73248;52.398;9.814;2024-02-23T12:23:59;2.38;;;0.60;;
30533;SDS011;73248;52.398;9.814;2024-02-23T12:26:24;2.65;;;0.40;;
30533;SDS011;73248;52.398;9.814;2024-02-23T12:28:50;2.97;;;0.70;;
30533;SDS011;73248;52.398;9.814;2024-02-23T12:31:15;2.47;;;0.95;;
30533;SDS011;73248;52.398;9.814;2024-02-23T12:33:48;2.22;;;0.65;;
30533;SDS011;73248;52.398;9.814;2024-02-23T12:36:13;3.85;;;0.50;;
30533;SDS011;73248;52.398;9.814;2024-02-23T12:38:40;2.22;;;0.65;;
30533;SDS011;73248;52.398;9.814;2024-02-23T12:41:05;2.70;;;0.57;;
30533;SDS011;73248;52.398;9.814;2024-02-23T12:43:31;2.80;;;0.68;;
30533;SDS011;73248;52.398;9.814;2024-02-23T12:45:57;2.28;;;0.60;;
30533;SDS011;73248;52.398;9.814;2024-02-23T12:48:23;5.85;;;0.75;;
30533;SDS011;73248;52.398;9.814;2024-02-23T12:50:48;3.70;;;0.70;;
30533;SDS011;73248;52.398;9.814;2024-02-23T12:53:31;1.02;;;0.40;;
30533;SDS011;73248;52.398;9.814;2024-02-23T12:55:57;1.92;;;0.52;;
30533;SDS011;73248;52.398;9.814;2024-02-23T12:58:23;2.35;;;0.50;;
30533;SDS011;73248;52.398;9.814;2024-02-23T13:00:49;1.45;;;0.32;;
30533;SDS011;73248;52.398;9.814;2024-02-23T13:03:14;2.92;;;0.63;;
30533;SDS011;73248;52.398;9.814;2024-02-23T13:05:40;2.00;;;0.60;;
30533;SDS011;73248;52.398;9.814;2024-02-23T13:08:06;1.52;;;0.55;;
30533;SDS011;73248;52.398;9.814;2024-02-23T13:10:31;3.38;;;0.47;;
30533;SDS011;73248;52.398;9.814;2024-02-23T13:12:57;1.38;;;0.40;;
30533;SDS011;73248;52.398;9.814;2024-02-23T13:15:23;3.70;;;0.47;;
30533;SDS011;73248;52.398;9.814;2024-02-23T13:17:48;4.30;;;0.80;;
30533;SDS011;73248;52.398;9.814;2024-02-23T13:20:14;2.35;;;0.30;;
30533;SDS011;73248;52.398;9.814;2024-02-23T13:22:39;0.90;;;0.50;;
30533;SDS011;73248;52.398;9.814;2024-02-23T13:25:05;3.70;;;0.88;;
30533;SDS011;73248;52.398;9.814;2024-02-23T13:27:31;1.50;;;0.80;;
30533;SDS011;73248;52.398;9.814;2024-02-23T13:29:56;2.65;;;0.50;;
30533;SDS011;73248;52.398;9.814;2024-02-23T13:32:22;2.13;;;0.73;;
30533;SDS011;73248;52.398;9.814;2024-02-23T13:34:48;1.80;;;0.32;;
30533;SDS011;73248;52.398;9.814;2024-02-23T13:37:17;1.85;;;0.35;;
30533;SDS011;73248;52.398;9.814;2024-02-23T13:39:43;2.45;;;0.43;;
30533;SDS011;73248;52.398;9.814;2024-02-23T13:42:08;5.05;;;0.82;;
30533;SDS011;73248;52.398;9.814;2024-02-23T13:44:35;5.40;;;0.60;;
30533;SDS011;73248;52.398;9.814;2024-02-23T13:47:01;1.77;;;0.52;;
30533;SDS011;73248;52.398;9.814;2024-02-23T13:49:27;7.38;;;0.80;;
30533;SDS011;73248;52.398;9.814;2024-02-23T13:51:53;3.63;;;0.70;;
30533;SDS011;73248;52.398;9.814;2024-02-23T13:54:18;2.00;;;0.47;;
30533;SDS011;73248;52.398;9.814;2024-02-23T13:56:44;3.55;;;0.45;;
30533;SDS011;73248;52.398;9.814;2024-02-23T13:59:10;3.42;;;0.88;;
30533;SDS011;73248;52.398;9.814;2024-02-23T14:01:35;4.65;;;0.40;;
30533;SDS011;73248;52.398;9.814;2024-02-23T14:04:05;2.05;;;0.60;;
30533;SDS011;73248;52.398;9.814;2024-02-23T14:06:31;5.13;;;0.70;;
30533;SDS011;73248;52.398;9.814;2024-02-23T14:08:57;2.33;;;0.50;;
30533;SDS011;73248;52.398;9.814;2024-02-23T14:11:22;3.53;;;0.40;;
30533;SDS011;73248;52.398;9.814;2024-02-23T14:13:48;5.00;;;1.10;;
30533;SDS011;73248;52.398;9.814;2024-02-23T14:16:14;1.08;;;0.15;;
30533;SDS011;73248;52.398;9.814;2024-02-23T14:18:39;1.90;;;0.40;;
30533;SDS011;73248;52.398;9.814;2024-02-23T14:21:07;1.40;;;0.47;;
30533;SDS011;73248;52.398;9.814;2024-02-23T14:23:33;2.83;;;0.68;;
30533;SDS011;73248;52.398;9.814;2024-02-23T14:25:59;2.00;;;0.50;;
30533;SDS011;73248;52.398;9.814;2024-02-23T14:28:25;3.45;;;0.65;;
30533;SDS011;73248;52.398;9.814;2024-02-23T14:30:50;4.05;;;0.80;;
30533;SDS011;73248;52.398;9.814;2024-02-23T14:33:17;3.72;;;0.75;;
30533;SDS011;73248;52.398;9.814;2024-02-23T14:35:43;3.88;;;0.60;;
30533;SDS011;73248;52.398;9.814;2024-02-23T14:38:09;5.22;;;0.57;;
30533;SDS011;73248;52.398;9.814;2024-02-23T14:40:34;2.47;;;0.57;;
30533;SDS011;73248;52.398;9.814;2024-02-23T14:43:02;1.75;;;0.68;;
30533;SDS011;73248;52.398;9.814;2024-02-23T14:45:28;6.53;;;0.80;;
30533;SDS011;73248;52.398;9.814;2024-02-23T14:47:54;3.67;;;0.75;;
30533;SDS011;73248;52.398;9.814;2024-02-23T14:50:19;4.25;;;0.85;;
30533;SDS011;73248;52.398;9.814;2024-02-23T14:52:45;5.47;;;0.60;;